Pagina principale
METAR-TAF:

METAR-TAF

Aeroporti :

Trieste, Italia

latitudine: 45-39N, longitudine: 013-45E, altezza: 8 m

Osservazione

Il bollettino è stato emesso 43 minuti fa, alle 12:55 UTC
Vento 11 kt da nord-est con raffiche fino a 27 kt
Temperature 13°C
Umidità 67%
Pressione 1008 hPa
Visibilità 10 km o più
Cielo coperto ad un'altezza di 3500 ft

METAR: LIVT 191255Z 04011G27KT 9999 OVC035 13/07 Q1008 RMK OVC QUK 3 QUL 1 NE VIS MAR 10 KM VIS MIN 9999

Ora: 15:38 (13:38 UTC)


TAF: mancante

Osservazioni e previsioni meteorologiche di più di 4000 aeroporti (messaggi METAR e TAF).

Le stazioni disponibili sono rappresentate dai dischi gialli e rossi sulla carta.

Puntare il mouse per vedere il nome della stazione.

Clicca sopra per visualizzare le osservazioni e previsioni meteorologiche.

Per cambiare la mappa : fare clic sui pulsanti verdi con una croce nera per ingrandire, il pulsante verde con un trattino per diminuire, o sulla freccia verde per le mappe adiacenti.


METAR-TAF: